sensor_id;sensor_type;location;lat;lon;timestamp;pressure;altitude;pressure_sealevel;temperature;humidity
68193;BME280;55012;47.562;18.414;2023-03-15T00:00:39;96201.09;;;7.79;100.00
68193;BME280;55012;47.562;18.414;2023-03-15T00:03:07;96208.78;;;7.77;100.00
68193;BME280;55012;47.562;18.414;2023-03-15T00:05:32;96227.31;;;7.72;100.00
68193;BME280;55012;47.562;18.414;2023-03-15T00:07:58;96223.47;;;7.69;100.00
68193;BME280;55012;47.562;18.414;2023-03-15T00:10:23;96251.94;;;7.67;100.00
68193;BME280;55012;47.562;18.414;2023-03-15T00:12:49;96256.22;;;7.64;100.00
68193;BME280;55012;47.562;18.414;2023-03-15T00:15:14;96255.47;;;7.60;100.00
68193;BME280;55012;47.562;18.414;2023-03-15T00:17:40;96291.63;;;7.55;100.00
68193;BME280;55012;47.562;18.414;2023-03-15T00:20:07;96295.50;;;7.51;100.00
68193;BME280;55012;47.562;18.414;2023-03-15T00:22:33;96324.69;;;7.56;100.00
68193;BME280;55012;47.562;18.414;2023-03-15T00:24:58;96294.31;;;7.55;100.00
68193;BME280;55012;47.562;18.414;2023-03-15T00:27:23;96325.44;;;7.53;100.00
68193;BME280;55012;47.562;18.414;2023-03-15T00:29:49;96337.38;;;7.52;100.00
68193;BME280;55012;47.562;18.414;2023-03-15T00:32:14;96342.78;;;7.48;100.00
68193;BME280;55012;47.562;18.414;2023-03-15T00:34:40;96340.50;;;7.43;100.00
68193;BME280;55012;47.562;18.414;2023-03-15T00:37:06;96351.25;;;7.43;100.00
68193;BME280;55012;47.562;18.414;2023-03-15T00:39:31;96375.88;;;7.42;100.00
68193;BME280;55012;47.562;18.414;2023-03-15T00:42:02;96368.19;;;7.40;100.00
68193;BME280;55012;47.562;18.414;2023-03-15T00:44:28;96378.19;;;7.40;100.00
68193;BME280;55012;47.562;18.414;2023-03-15T00:46:53;96389.34;;;7.35;100.00
68193;BME280;55012;47.562;18.414;2023-03-15T00:49:19;96409.34;;;7.33;100.00
68193;BME280;55012;47.562;18.414;2023-03-15T00:51:45;96395.53;;;7.31;100.00
68193;BME280;55012;47.562;18.414;2023-03-15T00:54:10;96410.13;;;7.30;100.00
68193;BME280;55012;47.562;18.414;2023-03-15T00:56:38;96402.84;;;7.27;100.00
68193;BME280;55012;47.562;18.414;2023-03-15T00:59:03;96433.56;;;7.26;100.00
68193;BME280;55012;47.562;18.414;2023-03-15T01:01:29;96423.59;;;7.23;100.00
68193;BME280;55012;47.562;18.414;2023-03-15T01:03:55;96413.63;;;7.24;100.00
68193;BME280;55012;47.562;18.414;2023-03-15T01:06:26;96431.28;;;7.25;100.00
68193;BME280;55012;47.562;18.414;2023-03-15T01:08:53;96433.56;;;7.26;100.00
68193;BME280;55012;47.562;18.414;2023-03-15T01:11:22;96424.78;;;7.22;100.00
68193;BME280;55012;47.562;18.414;2023-03-15T01:13:50;96439.75;;;7.23;100.00
68193;BME280;55012;47.562;18.414;2023-03-15T01:16:16;96430.16;;;7.22;100.00
68193;BME280;55012;47.562;18.414;2023-03-15T01:18:42;96458.19;;;7.21;100.00
68193;BME280;55012;47.562;18.414;2023-03-15T01:21:10;96456.66;;;7.20;100.00
68193;BME280;55012;47.562;18.414;2023-03-15T01:23:36;96437.44;;;7.18;100.00
68193;BME280;55012;47.562;18.414;2023-03-15T01:26:03;96455.13;;;7.16;100.00
68193;BME280;55012;47.562;18.414;2023-03-15T01:28:29;96456.28;;;7.15;100.00
68193;BME280;55012;47.562;18.414;2023-03-15T01:30:55;96435.94;;;7.10;100.00
68193;BME280;55012;47.562;18.414;2023-03-15T01:33:21;96442.88;;;7.08;100.00
68193;BME280;55012;47.562;18.414;2023-03-15T01:35:47;96462.84;;;7.07;100.00
68193;BME280;55012;47.562;18.414;2023-03-15T01:38:12;96474.75;;;7.06;100.00
68193;BME280;55012;47.562;18.414;2023-03-15T01:40:42;96465.91;;;7.01;100.00
68193;BME280;55012;47.562;18.414;2023-03-15T01:43:15;96472.44;;;7.00;100.00
68193;BME280;55012;47.562;18.414;2023-03-15T01:45:55;96472.84;;;6.99;100.00
68193;BME280;55012;47.562;18.414;2023-03-15T01:51:05;96464.78;;;6.92;100.00
68193;BME280;55012;47.562;18.414;2023-03-15T01:53:32;96497.03;;;6.92;100.00
68193;BME280;55012;47.562;18.414;2023-03-15T01:55:58;96480.56;;;6.90;100.00
68193;BME280;55012;47.562;18.414;2023-03-15T01:58:26;96479.41;;;6.87;100.00
68193;BME280;55012;47.562;18.414;2023-03-15T02:00:52;96466.34;;;6.86;100.00
68193;BME280;55012;47.562;18.414;2023-03-15T02:03:23;96469.81;;;6.83;100.00
68193;BME280;55012;47.562;18.414;2023-03-15T02:05:57;96479.81;;;6.79;100.00
68193;BME280;55012;47.562;18.414;2023-03-15T02:08:31;96487.47;;;6.76;100.00
68193;BME280;55012;47.562;18.414;2023-03-15T02:10:59;96487.09;;;6.74;100.00
68193;BME280;55012;47.562;18.414;2023-03-15T02:13:28;96497.44;;;6.76;100.00
68193;BME280;55012;47.562;18.414;2023-03-15T02:15:55;96496.31;;;6.81;100.00
68193;BME280;55012;47.562;18.414;2023-03-15T02:18:21;96510.50;;;6.78;100.00
68193;BME280;55012;47.562;18.414;2023-03-15T02:23:37;96507.06;;;6.81;100.00
68193;BME280;55012;47.562;18.414;2023-03-15T02:28:37;96487.06;;;6.85;100.00
68193;BME280;55012;47.562;18.414;2023-03-15T02:31:03;96520.84;;;6.86;100.00
68193;BME280;55012;47.562;18.414;2023-03-15T02:33:33;96522.78;;;6.89;100.00
68193;BME280;55012;47.562;18.414;2023-03-15T02:36:27;96518.56;;;6.95;100.00
68193;BME280;55012;47.562;18.414;2023-03-15T02:38:54;96519.31;;;6.96;100.00
68193;BME280;55012;47.562;18.414;2023-03-15T02:41:27;96520.09;;;6.96;100.00
68193;BME280;55012;47.562;18.414;2023-03-15T02:44:05;96526.22;;;6.97;100.00
68193;BME280;55012;47.562;18.414;2023-03-15T02:46:33;96536.97;;;6.93;100.00
68193;BME280;55012;47.562;18.414;2023-03-15T02:48:59;96567.31;;;6.90;100.00
68193;BME280;55012;47.562;18.414;2023-03-15T02:51:27;96526.59;;;6.92;100.00
68193;BME280;55012;47.562;18.414;2023-03-15T02:53:53;96550.41;;;6.90;100.00
68193;BME280;55012;47.562;18.414;2023-03-15T02:56:19;96544.66;;;6.88;100.00
68193;BME280;55012;47.562;18.414;2023-03-15T02:58:45;96580.75;;;6.83;100.00
68193;BME280;55012;47.562;18.414;2023-03-15T03:01:11;96582.69;;;6.79;100.00
68193;BME280;55012;47.562;18.414;2023-03-15T03:03:39;96588.03;;;6.75;100.00
68193;BME280;55012;47.562;18.414;2023-03-15T03:06:04;96599.19;;;6.70;100.00
68193;BME280;55012;47.562;18.414;2023-03-15T03:08:30;96602.63;;;6.67;100.00
68193;BME280;55012;47.562;18.414;2023-03-15T03:10:55;96608.78;;;6.64;100.00
68193;BME280;55012;47.562;18.414;2023-03-15T03:13:21;96612.59;;;6.63;100.00
68193;BME280;55012;47.562;18.414;2023-03-15T03:15:48;96604.53;;;6.60;100.00
68193;BME280;55012;47.562;18.414;2023-03-15T03:18:14;96648.66;;;6.59;100.00
68193;BME280;55012;47.562;18.414;2023-03-15T03:20:39;96636.00;;;6.56;100.00
68193;BME280;55012;47.562;18.414;2023-03-15T03:23:05;96649.03;;;6.54;100.00
68193;BME280;55012;47.562;18.414;2023-03-15T03:25:31;96668.59;;;6.47;100.00
68193;BME280;55012;47.562;18.414;2023-03-15T03:27:58;96652.50;;;6.47;100.00
68193;BME280;55012;47.562;18.414;2023-03-15T03:30:23;96686.22;;;6.41;100.00
68193;BME280;55012;47.562;18.414;2023-03-15T03:32:49;96657.06;;;6.39;100.00
68193;BME280;55012;47.562;18.414;2023-03-15T03:35:15;96643.25;;;6.37;100.00
68193;BME280;55012;47.562;18.414;2023-03-15T03:37:41;96685.44;;;6.30;100.00
68193;BME280;55012;47.562;18.414;2023-03-15T03:40:07;96677.72;;;6.21;100.00
68193;BME280;55012;47.562;18.414;2023-03-15T03:42:33;96674.59;;;6.12;100.00
68193;BME280;55012;47.562;18.414;2023-03-15T03:44:59;96676.47;;;6.01;100.00
68193;BME280;55012;47.562;18.414;2023-03-15T03:47:25;96687.19;;;5.94;100.00
68193;BME280;55012;47.562;18.414;2023-03-15T03:49:50;96685.97;;;5.84;100.00
68193;BME280;55012;47.562;18.414;2023-03-15T03:52:16;96732.28;;;5.74;100.00
68193;BME280;55012;47.562;18.414;2023-03-15T03:54:41;96693.16;;;5.66;100.00
68193;BME280;55012;47.562;18.414;2023-03-15T03:57:07;96655.94;;;5.60;100.00
68193;BME280;55012;47.562;18.414;2023-03-15T03:59:33;96641.34;;;5.51;100.00
68193;BME280;55012;47.562;18.414;2023-03-15T04:01:58;96721.00;;;5.47;100.00
68193;BME280;55012;47.562;18.414;2023-03-15T04:04:24;96695.66;;;5.41;100.00
68193;BME280;55012;47.562;18.414;2023-03-15T04:06:50;96676.84;;;5.37;100.00
68193;BME280;55012;47.562;18.414;2023-03-15T04:09:16;96676.06;;;5.33;100.00
68193;BME280;55012;47.562;18.414;2023-03-15T04:11:42;96685.25;;;5.32;100.00
68193;BME280;55012;47.562;18.414;2023-03-15T04:14:12;96692.09;;;5.26;100.00
68193;BME280;55012;47.562;18.414;2023-03-15T04:16:38;96691.28;;;5.18;100.00
68193;BME280;55012;47.562;18.414;2023-03-15T04:19:03;96692.03;;;5.15;100.00
68193;BME280;55012;47.562;18.414;2023-03-15T04:21:29;96706.16;;;5.12;100.00
68193;BME280;55012;47.562;18.414;2023-03-15T04:24:00;96717.59;;;5.05;100.00
68193;BME280;55012;47.562;18.414;2023-03-15T04:26:26;96722.13;;;4.98;100.00
68193;BME280;55012;47.562;18.414;2023-03-15T04:28:53;96727.81;;;4.93;100.00
68193;BME280;55012;47.562;18.414;2023-03-15T04:31:19;96802.38;;;4.87;100.00
68193;BME280;55012;47.562;18.414;2023-03-15T04:33:44;96796.16;;;4.79;100.00
68193;BME280;55012;47.562;18.414;2023-03-15T04:36:10;96740.56;;;4.66;100.00
68193;BME280;55012;47.562;18.414;2023-03-15T04:38:47;96750.44;;;4.62;100.00
68193;BME280;55012;47.562;18.414;2023-03-15T04:41:17;96763.75;;;4.55;100.00
68193;BME280;55012;47.562;18.414;2023-03-15T04:43:43;96771.25;;;4.42;100.00
68193;BME280;55012;47.562;18.414;2023-03-15T04:46:09;96791.06;;;4.37;100.00
68193;BME280;55012;47.562;18.414;2023-03-15T04:48:35;96791.34;;;4.29;100.00
68193;BME280;55012;47.562;18.414;2023-03-15T04:51:00;96779.06;;;4.24;100.00
68193;BME280;55012;47.562;18.414;2023-03-15T04:53:26;96825.69;;;4.23;100.00
68193;BME280;55012;47.562;18.414;2023-03-15T04:55:52;96847.00;;;4.16;100.00
68193;BME280;55012;47.562;18.414;2023-03-15T04:58:18;96822.44;;;4.10;100.00
68193;BME280;55012;47.562;18.414;2023-03-15T05:00:44;96826.63;;;4.08;100.00
68193;BME280;55012;47.562;18.414;2023-03-15T05:03:09;96828.06;;;4.02;100.00
68193;BME280;55012;47.562;18.414;2023-03-15T05:05:35;96858.63;;;4.01;100.00
68193;BME280;55012;47.562;18.414;2023-03-15T05:08:00;96907.13;;;3.99;100.00
68193;BME280;55012;47.562;18.414;2023-03-15T05:10:26;96858.50;;;3.93;100.00
68193;BME280;55012;47.562;18.414;2023-03-15T05:12:54;96932.22;;;3.91;100.00
68193;BME280;55012;47.562;18.414;2023-03-15T05:15:20;96863.38;;;3.88;100.00
68193;BME280;55012;47.562;18.414;2023-03-15T05:17:46;96887.00;;;3.82;100.00
68193;BME280;55012;47.562;18.414;2023-03-15T05:20:13;96919.09;;;3.82;100.00
68193;BME280;55012;47.562;18.414;2023-03-15T05:22:41;96965.25;;;3.79;100.00
68193;BME280;55012;47.562;18.414;2023-03-15T05:25:08;96920.91;;;3.78;100.00
68193;BME280;55012;47.562;18.414;2023-03-15T05:27:34;96917.84;;;3.76;100.00
68193;BME280;55012;47.562;18.414;2023-03-15T05:30:00;96924.31;;;3.75;100.00
68193;BME280;55012;47.562;18.414;2023-03-15T05:32:29;96922.78;;;3.74;100.00
68193;BME280;55012;47.562;18.414;2023-03-15T05:35:03;96938.38;;;3.72;100.00
68193;BME280;55012;47.562;18.414;2023-03-15T05:37:29;96930.31;;;3.69;100.00
68193;BME280;55012;47.562;18.414;2023-03-15T05:39:56;96976.81;;;3.64;100.00
68193;BME280;55012;47.562;18.414;2023-03-15T05:42:22;96931.25;;;3.57;100.00
68193;BME280;55012;47.562;18.414;2023-03-15T05:44:53;96934.63;;;3.54;100.00
68193;BME280;55012;47.562;18.414;2023-03-15T05:47:19;96943.41;;;3.54;100.00
68193;BME280;55012;47.562;18.414;2023-03-15T05:49:45;96936.88;;;3.52;100.00
68193;BME280;55012;47.562;18.414;2023-03-15T05:52:11;96955.19;;;3.50;100.00
68193;BME280;55012;47.562;18.414;2023-03-15T05:54:36;96968.97;;;3.52;100.00
68193;BME280;55012;47.562;18.414;2023-03-15T05:57:02;96979.66;;;3.52;100.00
68193;BME280;55012;47.562;18.414;2023-03-15T05:59:28;96966.28;;;3.52;100.00
68193;BME280;55012;47.562;18.414;2023-03-15T06:01:53;97000.28;;;3.51;100.00
68193;BME280;55012;47.562;18.414;2023-03-15T06:04:18;96993.75;;;3.49;100.00
68193;BME280;55012;47.562;18.414;2023-03-15T06:06:44;96971.59;;;3.48;100.00
68193;BME280;55012;47.562;18.414;2023-03-15T06:09:10;96969.38;;;3.54;100.00
68193;BME280;55012;47.562;18.414;2023-03-15T06:11:35;96990.84;;;3.57;100.00
68193;BME280;55012;47.562;18.414;2023-03-15T06:14:01;97008.06;;;3.60;100.00
68193;BME280;55012;47.562;18.414;2023-03-15T06:16:27;96975.56;;;3.58;100.00
68193;BME280;55012;47.562;18.414;2023-03-15T06:18:52;96976.75;;;3.60;100.00
68193;BME280;55012;47.562;18.414;2023-03-15T06:21:18;97016.91;;;3.64;100.00
68193;BME280;55012;47.562;18.414;2023-03-15T06:23:43;96985.19;;;3.62;100.00
68193;BME280;55012;47.562;18.414;2023-03-15T06:26:09;96989.91;;;3.69;100.00
68193;BME280;55012;47.562;18.414;2023-03-15T06:28:34;96995.34;;;3.73;100.00
68193;BME280;55012;47.562;18.414;2023-03-15T06:31:07;97012.44;;;3.68;100.00
68193;BME280;55012;47.562;18.414;2023-03-15T06:33:33;97007.28;;;3.59;100.00
68193;BME280;55012;47.562;18.414;2023-03-15T06:35:58;96996.56;;;3.56;100.00
68193;BME280;55012;47.562;18.414;2023-03-15T06:38:24;97011.50;;;3.60;100.00
68193;BME280;55012;47.562;18.414;2023-03-15T06:40:49;97014.97;;;3.61;100.00
68193;BME280;55012;47.562;18.414;2023-03-15T06:43:15;97037.13;;;3.61;100.00
68193;BME280;55012;47.562;18.414;2023-03-15T06:45:45;97026.84;;;3.63;100.00
68193;BME280;55012;47.562;18.414;2023-03-15T06:48:12;97017.00;;;3.67;100.00
68193;BME280;55012;47.562;18.414;2023-03-15T06:50:38;97018.91;;;3.67;100.00
68193;BME280;55012;47.562;18.414;2023-03-15T06:53:03;97020.16;;;3.73;100.00
68193;BME280;55012;47.562;18.414;2023-03-15T06:55:29;97009.94;;;3.79;100.00
68193;BME280;55012;47.562;18.414;2023-03-15T06:57:54;97004.59;;;3.79;100.00
68193;BME280;55012;47.562;18.414;2023-03-15T07:00:20;96982.06;;;3.80;100.00
68193;BME280;55012;47.562;18.414;2023-03-15T07:02:47;97010.19;;;3.93;100.00
68193;BME280;55012;47.562;18.414;2023-03-15T07:05:13;96992.25;;;3.93;100.00
68193;BME280;55012;47.562;18.414;2023-03-15T07:07:39;97004.44;;;3.91;100.00
68193;BME280;55012;47.562;18.414;2023-03-15T07:10:05;97006.22;;;3.83;100.00
68193;BME280;55012;47.562;18.414;2023-03-15T07:12:31;97002.13;;;3.89;100.00
68193;BME280;55012;47.562;18.414;2023-03-15T07:14:56;97064.84;;;3.92;100.00
68193;BME280;55012;47.562;18.414;2023-03-15T07:17:21;97032.66;;;3.88;100.00
68193;BME280;55012;47.562;18.414;2023-03-15T07:19:47;97048.28;;;3.86;100.00
68193;BME280;55012;47.562;18.414;2023-03-15T07:22:12;97039.56;;;3.89;100.00
68193;BME280;55012;47.562;18.414;2023-03-15T07:24:38;97065.25;;;3.94;100.00
68193;BME280;55012;47.562;18.414;2023-03-15T07:27:04;97044.47;;;3.87;100.00
68193;BME280;55012;47.562;18.414;2023-03-15T07:29:29;97040.41;;;3.93;100.00
68193;BME280;55012;47.562;18.414;2023-03-15T07:31:55;97129.53;;;3.98;100.00
68193;BME280;55012;47.562;18.414;2023-03-15T07:34:20;97039.28;;;3.94;100.00
68193;BME280;55012;47.562;18.414;2023-03-15T07:36:46;97084.38;;;3.96;100.00
68193;BME280;55012;47.562;18.414;2023-03-15T07:39:12;97083.25;;;3.97;100.00
68193;BME280;55012;47.562;18.414;2023-03-15T07:41:38;97068.34;;;3.96;100.00
68193;BME280;55012;47.562;18.414;2023-03-15T07:44:04;97055.03;;;4.00;100.00
68193;BME280;55012;47.562;18.414;2023-03-15T07:46:30;97078.13;;;4.08;100.00
68193;BME280;55012;47.562;18.414;2023-03-15T07:48:56;97089.59;;;4.08;100.00
68193;BME280;55012;47.562;18.414;2023-03-15T07:51:21;97090.50;;;4.16;100.00
68193;BME280;55012;47.562;18.414;2023-03-15T07:53:47;97095.13;;;4.19;100.00
68193;BME280;55012;47.562;18.414;2023-03-15T07:56:12;97086.41;;;4.22;100.00
68193;BME280;55012;47.562;18.414;2023-03-15T07:58:38;97121.75;;;4.31;100.00
68193;BME280;55012;47.562;18.414;2023-03-15T08:01:03;97150.41;;;4.31;100.00
68193;BME280;55012;47.562;18.414;2023-03-15T08:03:29;97101.44;;;4.30;100.00
68193;BME280;55012;47.562;18.414;2023-03-15T08:05:55;97115.94;;;4.29;100.00
68193;BME280;55012;47.562;18.414;2023-03-15T08:08:21;97110.28;;;4.31;100.00
68193;BME280;55012;47.562;18.414;2023-03-15T08:10:47;97114.53;;;4.35;100.00
68193;BME280;55012;47.562;18.414;2023-03-15T08:13:13;97124.66;;;4.45;100.00
68193;BME280;55012;47.562;18.414;2023-03-15T08:15:38;97135.72;;;4.44;100.00
68193;BME280;55012;47.562;18.414;2023-03-15T08:18:04;97147.03;;;4.34;100.00
68193;BME280;55012;47.562;18.414;2023-03-15T08:20:30;97131.72;;;4.34;100.00
68193;BME280;55012;47.562;18.414;2023-03-15T08:22:58;97130.00;;;4.45;100.00
68193;BME280;55012;47.562;18.414;2023-03-15T08:25:24;97115.22;;;4.51;100.00
68193;BME280;55012;47.562;18.414;2023-03-15T08:27:50;97110.25;;;4.54;100.00
68193;BME280;55012;47.562;18.414;2023-03-15T08:30:17;97111.72;;;4.47;100.00
68193;BME280;55012;47.562;18.414;2023-03-15T08:32:47;97114.03;;;4.49;100.00
68193;BME280;55012;47.562;18.414;2023-03-15T08:35:14;97178.97;;;4.46;100.00
68193;BME280;55012;47.562;18.414;2023-03-15T08:37:40;97153.69;;;4.43;100.00
68193;BME280;55012;47.562;18.414;2023-03-15T08:40:07;97169.03;;;4.46;100.00
68193;BME280;55012;47.562;18.414;2023-03-15T08:42:36;97249.34;;;4.46;100.00
68193;BME280;55012;47.562;18.414;2023-03-15T08:45:06;97202.44;;;4.53;100.00
68193;BME280;55012;47.562;18.414;2023-03-15T08:47:35;97171.50;;;4.55;100.00
68193;BME280;55012;47.562;18.414;2023-03-15T08:50:03;97170.03;;;4.58;100.00
68193;BME280;55012;47.562;18.414;2023-03-15T08:52:30;97203.69;;;4.59;100.00
68193;BME280;55012;47.562;18.414;2023-03-15T08:54:56;97174.25;;;4.59;100.00
68193;BME280;55012;47.562;18.414;2023-03-15T08:57:22;97244.06;;;4.69;100.00
68193;BME280;55012;47.562;18.414;2023-03-15T08:59:51;97207.66;;;4.65;100.00
68193;BME280;55012;47.562;18.414;2023-03-15T09:02:17;97240.19;;;4.67;100.00
68193;BME280;55012;47.562;18.414;2023-03-15T09:04:43;97242.94;;;4.70;100.00
68193;BME280;55012;47.562;18.414;2023-03-15T09:07:08;97239.78;;;4.65;100.00
68193;BME280;55012;47.562;18.414;2023-03-15T09:09:34;97259.22;;;4.62;100.00
68193;BME280;55012;47.562;18.414;2023-03-15T09:11:59;97244.28;;;4.61;100.00
68193;BME280;55012;47.562;18.414;2023-03-15T09:14:25;97265.28;;;4.59;100.00
68193;BME280;55012;47.562;18.414;2023-03-15T09:16:50;97268.25;;;4.54;100.00
68193;BME280;55012;47.562;18.414;2023-03-15T09:19:16;97265.00;;;4.64;100.00
68193;BME280;55012;47.562;18.414;2023-03-15T09:21:42;97261.69;;;4.70;100.00
68193;BME280;55012;47.562;18.414;2023-03-15T09:24:09;97254.63;;;4.82;100.00
68193;BME280;55012;47.562;18.414;2023-03-15T09:26:35;97310.13;;;4.81;100.00
68193;BME280;55012;47.562;18.414;2023-03-15T09:29:00;97348.75;;;4.80;100.00
68193;BME280;55012;47.562;18.414;2023-03-15T09:31:26;97324.28;;;4.82;100.00
68193;BME280;55012;47.562;18.414;2023-03-15T09:33:51;97352.31;;;4.88;100.00
68193;BME280;55012;47.562;18.414;2023-03-15T09:36:17;97399.13;;;4.94;100.00
68193;BME280;55012;47.562;18.414;2023-03-15T09:38:42;97358.25;;;4.97;100.00
68193;BME280;55012;47.562;18.414;2023-03-15T09:41:48;97371.88;;;4.88;100.00
68193;BME280;55012;47.562;18.414;2023-03-15T09:44:33;97364.03;;;4.79;100.00
68193;BME280;55012;47.562;18.414;2023-03-15T09:50:31;97480.78;;;4.81;100.00
68193;BME280;55012;47.562;18.414;2023-03-15T09:53:15;97438.13;;;4.72;100.00
68193;BME280;55012;47.562;18.414;2023-03-15T09:55:44;97443.38;;;4.68;100.00
68193;BME280;55012;47.562;18.414;2023-03-15T09:58:16;97451.56;;;4.75;100.00
68193;BME280;55012;47.562;18.414;2023-03-15T10:00:46;97412.94;;;4.76;100.00
68193;BME280;55012;47.562;18.414;2023-03-15T10:06:23;97399.66;;;4.80;100.00
68193;BME280;55012;47.562;18.414;2023-03-15T10:09:02;97382.78;;;4.79;100.00
68193;BME280;55012;47.562;18.414;2023-03-15T10:11:33;97375.03;;;4.94;100.00
68193;BME280;55012;47.562;18.414;2023-03-15T10:17:10;97351.28;;;4.92;100.00
68193;BME280;55012;47.562;18.414;2023-03-15T10:19:52;97375.94;;;5.01;100.00
68193;BME280;55012;47.562;18.414;2023-03-15T10:22:27;97391.59;;;4.99;100.00
68193;BME280;55012;47.562;18.414;2023-03-15T10:25:13;97397.78;;;4.84;100.00
68193;BME280;55012;47.562;18.414;2023-03-15T10:27:55;97356.84;;;4.84;100.00
68193;BME280;55012;47.562;18.414;2023-03-15T10:30:26;97317.44;;;4.84;100.00
68193;BME280;55012;47.562;18.414;2023-03-15T10:33:27;97228.75;;;4.89;100.00
68193;BME280;55012;47.562;18.414;2023-03-15T10:35:54;97139.97;;;4.91;100.00
68193;BME280;55012;47.562;18.414;2023-03-15T10:38:22;97175.03;;;5.05;100.00
68193;BME280;55012;47.562;18.414;2023-03-15T10:40:53;97111.31;;;4.95;100.00
68193;BME280;55012;47.562;18.414;2023-03-15T10:43:22;97027.34;;;4.84;100.00
68193;BME280;55012;47.562;18.414;2023-03-15T10:48:29;96919.34;;;4.76;100.00
68193;BME280;55012;47.562;18.414;2023-03-15T10:50:56;96866.13;;;4.74;100.00
68193;BME280;55012;47.562;18.414;2023-03-15T10:53:21;96870.34;;;4.75;100.00
68193;BME280;55012;47.562;18.414;2023-03-15T10:55:56;96789.69;;;4.81;100.00
68193;BME280;55012;47.562;18.414;2023-03-15T10:58:25;96752.28;;;4.91;100.00
68193;BME280;55012;47.562;18.414;2023-03-15T11:01:03;96793.28;;;4.95;100.00
68193;BME280;55012;47.562;18.414;2023-03-15T11:03:32;96794.31;;;4.84;100.00
68193;BME280;55012;47.562;18.414;2023-03-15T11:05:58;96829.50;;;4.82;100.00
68193;BME280;55012;47.562;18.414;2023-03-15T11:08:35;96837.56;;;4.86;100.00
68193;BME280;55012;47.562;18.414;2023-03-15T11:11:02;96841.09;;;4.93;100.00
68193;BME280;55012;47.562;18.414;2023-03-15T11:13:30;96814.69;;;4.95;100.00
68193;BME280;55012;47.562;18.414;2023-03-15T11:18:41;96880.19;;;4.98;100.00
68193;BME280;55012;47.562;18.414;2023-03-15T11:21:12;96924.53;;;4.95;100.00
68193;BME280;55012;47.562;18.414;2023-03-15T11:23:42;96956.19;;;4.86;100.00
68193;BME280;55012;47.562;18.414;2023-03-15T11:26:16;96936.66;;;4.86;100.00
68193;BME280;55012;47.562;18.414;2023-03-15T11:28:47;96928.75;;;4.96;100.00
68193;BME280;55012;47.562;18.414;2023-03-15T11:31:13;96901.25;;;4.99;100.00
68193;BME280;55012;47.562;18.414;2023-03-15T11:33:50;96925.41;;;5.03;100.00
68193;BME280;55012;47.562;18.414;2023-03-15T11:36:21;96949.50;;;4.99;100.00
68193;BME280;55012;47.562;18.414;2023-03-15T11:38:48;96983.84;;;4.94;100.00
68193;BME280;55012;47.562;18.414;2023-03-15T11:41:27;96987.72;;;4.96;100.00
68193;BME280;55012;47.562;18.414;2023-03-15T11:46:47;97073.97;;;5.05;100.00
68193;BME280;55012;47.562;18.414;2023-03-15T11:49:28;97110.38;;;5.06;100.00
68193;BME280;55012;47.562;18.414;2023-03-15T11:51:56;97086.66;;;5.08;100.00
68193;BME280;55012;47.562;18.414;2023-03-15T11:54:23;97120.47;;;5.17;100.00
68193;BME280;55012;47.562;18.414;2023-03-15T11:56:56;97183.50;;;5.33;100.00
68193;BME280;55012;47.562;18.414;2023-03-15T11:59:35;97474.19;;;5.32;100.00
68193;BME280;55012;47.562;18.414;2023-03-15T12:09:56;97828.63;;;5.22;100.00
68193;BME280;55012;47.562;18.414;2023-03-15T12:17:45;98029.78;;;5.38;100.00
68193;BME280;55012;47.562;18.414;2023-03-15T12:20:38;98456.50;;;5.36;100.00
68193;BME280;55012;47.562;18.414;2023-03-15T12:25:55;98567.00;;;5.30;100.00
68193;BME280;55012;47.562;18.414;2023-03-15T12:31:01;98508.72;;;5.39;100.00
68193;BME280;55012;47.562;18.414;2023-03-15T12:33:29;98563.66;;;5.54;100.00
68193;BME280;55012;47.562;18.414;2023-03-15T12:36:07;98538.34;;;5.63;100.00
68193;BME280;55012;47.562;18.414;2023-03-15T12:38:38;98527.41;;;5.69;100.00
68193;BME280;55012;47.562;18.414;2023-03-15T12:41:33;98540.47;;;5.70;100.00
68193;BME280;55012;47.562;18.414;2023-03-15T12:49:12;98523.94;;;5.68;100.00
68193;BME280;55012;47.562;18.414;2023-03-15T12:51:44;98551.69;;;5.72;100.00
68193;BME280;55012;47.562;18.414;2023-03-15T12:54:19;98531.47;;;5.75;100.00
68193;BME280;55012;47.562;18.414;2023-03-15T12:56:48;98536.16;;;5.78;100.00
68193;BME280;55012;47.562;18.414;2023-03-15T13:00:04;98520.19;;;5.81;100.00
68193;BME280;55012;47.562;18.414;2023-03-15T13:02:32;98543.22;;;5.82;100.00
68193;BME280;55012;47.562;18.414;2023-03-15T13:08:21;98529.22;;;5.77;100.00
68193;BME280;55012;47.562;18.414;2023-03-15T13:18:40;98574.06;;;5.76;100.00
68193;BME280;55012;47.562;18.414;2023-03-15T13:21:23;98564.81;;;5.86;100.00
68193;BME280;55012;47.562;18.414;2023-03-15T13:23:51;98551.53;;;5.89;100.00
68193;BME280;55012;47.562;18.414;2023-03-15T13:31:31;98575.97;;;5.97;100.00
68193;BME280;55012;47.562;18.414;2023-03-15T13:34:09;98568.75;;;6.09;100.00
68193;BME280;55012;47.562;18.414;2023-03-15T13:36:41;98524.69;;;6.23;100.00
68193;BME280;55012;47.562;18.414;2023-03-15T13:39:31;98555.56;;;6.29;100.00
68193;BME280;55012;47.562;18.414;2023-03-15T13:41:58;98567.44;;;6.28;100.00
68193;BME280;55012;47.562;18.414;2023-03-15T13:44:25;98573.28;;;6.30;100.00
68193;BME280;55012;47.562;18.414;2023-03-15T13:46:52;98531.97;;;6.22;100.00
68193;BME280;55012;47.562;18.414;2023-03-15T13:49:18;98559.38;;;6.28;100.00
68193;BME280;55012;47.562;18.414;2023-03-15T13:51:45;98547.09;;;6.39;100.00
68193;BME280;55012;47.562;18.414;2023-03-15T13:54:28;98561.53;;;6.34;100.00
68193;BME280;55012;47.562;18.414;2023-03-15T13:57:11;98565.03;;;6.47;100.00
68193;BME280;55012;47.562;18.414;2023-03-15T13:59:59;98546.22;;;6.47;100.00
68193;BME280;55012;47.562;18.414;2023-03-15T14:02:35;98530.66;;;6.40;100.00